createdAt,value
2023-05-11T00:01:13.132Z,8.63
2023-05-11T00:03:58.470Z,9.43
2023-05-11T00:06:59.191Z,10.27
2023-05-11T00:09:25.645Z,10.93
2023-05-11T00:11:52.931Z,9.70
2023-05-11T00:14:19.503Z,11.13
2023-05-11T00:16:46.152Z,11.27
2023-05-11T00:19:12.613Z,11.80
2023-05-11T00:21:39.105Z,12.07
2023-05-11T00:24:05.982Z,12.90
2023-05-11T00:26:32.583Z,12.70
2023-05-11T00:28:59.275Z,14.57
2023-05-11T00:31:26.973Z,13.70
2023-05-11T00:33:55.488Z,15.00
2023-05-11T00:36:23.228Z,13.17
2023-05-11T00:38:50.063Z,14.10
2023-05-11T00:41:16.613Z,15.83
2023-05-11T00:43:43.167Z,14.80
2023-05-11T00:46:09.640Z,15.20
2023-05-11T00:48:36.559Z,15.43
2023-05-11T00:51:04.130Z,15.93
2023-05-11T00:53:30.593Z,17.77
2023-05-11T00:55:57.094Z,19.33
2023-05-11T00:58:23.826Z,18.10
2023-05-11T01:00:50.616Z,16.37
2023-05-11T01:03:17.501Z,17.77
2023-05-11T01:05:56.519Z,16.57
2023-05-11T01:08:25.031Z,18.93
2023-05-11T01:11:19.566Z,16.90
2023-05-11T01:13:48.477Z,17.00
2023-05-11T01:16:19.251Z,16.50
2023-05-11T01:18:49.603Z,18.20
2023-05-11T01:21:16.810Z,16.30
2023-05-11T01:24:03.648Z,16.63
2023-05-11T01:26:33.773Z,17.37
2023-05-11T01:29:03.555Z,19.17
2023-05-11T01:31:31.059Z,16.90
2023-05-11T01:33:59.096Z,20.93
2023-05-11T01:36:28.569Z,17.63
2023-05-11T01:38:56.597Z,20.40
2023-05-11T01:41:23.794Z,18.70
2023-05-11T01:43:55.914Z,18.90
2023-05-11T01:46:25.103Z,18.60
2023-05-11T01:48:53.012Z,20.90
2023-05-11T01:51:20.653Z,20.67
2023-05-11T01:53:47.995Z,20.57
2023-05-11T01:56:15.409Z,23.77
2023-05-11T01:58:42.366Z,22.73
2023-05-11T02:01:09.320Z,22.30
2023-05-11T02:03:36.846Z,22.80
2023-05-11T02:06:07.191Z,25.90
2023-05-11T02:08:36.029Z,25.70
2023-05-11T02:11:02.986Z,26.80
2023-05-11T02:13:29.939Z,28.70
2023-05-11T02:15:57.194Z,26.07
2023-05-11T02:18:23.990Z,25.87
2023-05-11T02:20:58.368Z,25.33
2023-05-11T02:23:26.385Z,27.30
2023-05-11T02:25:53.675Z,27.47
2023-05-11T02:28:20.573Z,27.37
2023-05-11T02:30:49.717Z,28.33
2023-05-11T02:33:22.364Z,26.13
2023-05-11T02:35:50.283Z,28.97
2023-05-11T02:38:17.872Z,27.67
2023-05-11T02:40:49.224Z,31.87
2023-05-11T02:43:20.668Z,28.67
2023-05-11T02:45:57.709Z,32.57
2023-05-11T02:48:26.739Z,29.13
2023-05-11T02:50:54.972Z,29.77
2023-05-11T02:53:25.599Z,30.67
2023-05-11T02:55:53.490Z,31.00
2023-05-11T02:58:21.020Z,33.50
2023-05-11T03:00:54.176Z,32.67
2023-05-11T03:03:21.022Z,33.13
2023-05-11T03:05:47.945Z,34.47
2023-05-11T03:08:14.576Z,35.53
2023-05-11T03:10:41.676Z,35.47
2023-05-11T03:13:09.224Z,38.80
2023-05-11T03:15:36.864Z,37.57
2023-05-11T03:18:03.981Z,38.37
2023-05-11T03:20:31.789Z,34.67
2023-05-11T03:22:59.246Z,35.97
2023-05-11T03:25:29.022Z,39.73
2023-05-11T03:27:56.883Z,35.73
2023-05-11T03:30:24.011Z,35.33
2023-05-11T03:32:53.604Z,37.67
2023-05-11T03:35:21.411Z,35.20
2023-05-11T03:37:47.959Z,38.77
2023-05-11T03:40:15.735Z,37.07
2023-05-11T03:42:53.264Z,37.70
2023-05-11T03:45:20.602Z,35.03
2023-05-11T03:47:48.710Z,32.43
2023-05-11T03:50:15.610Z,36.50
2023-05-11T03:52:43.227Z,35.50
2023-05-11T03:55:10.152Z,36.83
2023-05-11T03:57:36.818Z,36.90
2023-05-11T04:00:03.562Z,36.57
2023-05-11T04:02:31.305Z,36.73
2023-05-11T04:04:57.960Z,36.47
2023-05-11T04:07:24.543Z,33.77
2023-05-11T04:09:51.096Z,34.13
2023-05-11T04:12:17.837Z,31.40
2023-05-11T04:14:44.455Z,31.27
2023-05-11T04:17:11.053Z,33.53
2023-05-11T04:19:37.749Z,33.00
2023-05-11T04:22:04.252Z,30.53
2023-05-11T04:24:30.750Z,33.07
2023-05-11T04:26:57.868Z,30.87
2023-05-11T04:29:25.030Z,31.70
2023-05-11T04:31:51.693Z,34.00
2023-05-11T04:34:18.358Z,30.60
2023-05-11T04:36:47.204Z,33.57
2023-05-11T04:39:14.037Z,33.50
2023-05-11T04:41:41.207Z,31.70
2023-05-11T04:44:08.523Z,33.60
2023-05-11T04:46:35.159Z,30.63
2023-05-11T04:49:01.939Z,27.70
2023-05-11T04:51:30.126Z,30.47
2023-05-11T04:53:56.735Z,31.57
2023-05-11T04:56:23.349Z,33.17
2023-05-11T04:58:50.431Z,30.47
2023-05-11T05:01:17.030Z,30.77
2023-05-11T05:03:43.672Z,29.50
2023-05-11T05:06:11.285Z,31.70
2023-05-11T05:08:37.747Z,28.00
2023-05-11T05:11:04.292Z,30.80
2023-05-11T05:13:31.129Z,28.50
2023-05-11T05:15:58.914Z,28.27
2023-05-11T05:18:25.555Z,26.33
2023-05-11T05:20:52.220Z,26.50
2023-05-11T05:23:18.761Z,26.43
2023-05-11T05:25:45.324Z,27.07
2023-05-11T05:28:11.865Z,23.93
2023-05-11T05:30:38.648Z,23.30
2023-05-11T05:33:05.451Z,25.70
2023-05-11T05:35:33.748Z,25.07
2023-05-11T05:38:01.125Z,25.90
2023-05-11T05:40:29.059Z,25.07
2023-05-11T05:42:56.302Z,24.77
2023-05-11T05:45:24.221Z,25.80
2023-05-11T05:47:52.015Z,24.60
2023-05-11T05:50:19.961Z,21.10
2023-05-11T05:52:46.868Z,22.93
2023-05-11T05:55:14.151Z,23.37
2023-05-11T05:57:41.917Z,23.43
2023-05-11T06:00:10.072Z,21.27
2023-05-11T06:02:42.423Z,22.27
2023-05-11T06:05:17.488Z,20.20
2023-05-11T06:07:49.325Z,22.80
2023-05-11T06:10:21.194Z,22.97
2023-05-11T06:12:47.782Z,22.20
2023-05-11T06:15:14.496Z,21.73
2023-05-11T06:17:45.415Z,21.33
2023-05-11T06:20:13.017Z,21.20
2023-05-11T06:22:40.024Z,21.33
2023-05-11T06:25:06.910Z,22.43
2023-05-11T06:27:33.474Z,24.33
2023-05-11T06:30:00.078Z,24.37
2023-05-11T06:32:34.061Z,26.23
2023-05-11T06:35:02.559Z,24.50
2023-05-11T06:37:29.693Z,23.07
2023-05-11T06:39:56.401Z,23.33
2023-05-11T06:42:23.963Z,23.30
2023-05-11T06:44:50.682Z,25.97
2023-05-11T06:47:17.302Z,25.50
2023-05-11T06:49:43.840Z,26.00
2023-05-11T06:52:10.481Z,26.37
2023-05-11T06:54:37.065Z,28.60
2023-05-11T06:57:03.705Z,26.40
2023-05-11T06:59:30.574Z,25.83
2023-05-11T07:01:57.055Z,26.17
2023-05-11T07:04:23.682Z,28.00
2023-05-11T07:06:50.411Z,30.13
2023-05-11T07:09:17.091Z,29.70
2023-05-11T07:11:43.711Z,28.40
2023-05-11T07:14:10.459Z,28.30
2023-05-11T07:16:40.207Z,28.93
2023-05-11T07:19:08.484Z,28.10
2023-05-11T07:21:35.485Z,29.13
2023-05-11T07:24:03.061Z,27.47
2023-05-11T07:26:29.722Z,29.40
2023-05-11T07:28:56.377Z,28.53
2023-05-11T07:31:22.992Z,26.23
2023-05-11T07:33:49.556Z,25.93
2023-05-11T07:36:16.245Z,27.47
2023-05-11T07:38:42.920Z,27.20
2023-05-11T07:41:11.608Z,26.80
2023-05-11T07:43:39.271Z,25.17
2023-05-11T07:46:06.132Z,26.93
2023-05-11T07:48:32.825Z,26.03
2023-05-11T07:50:59.594Z,27.53
2023-05-11T07:53:26.259Z,26.10
2023-05-11T07:55:52.814Z,23.77
2023-05-11T07:58:19.569Z,26.13
2023-05-11T08:00:46.181Z,26.37
2023-05-11T08:03:13.210Z,24.90
2023-05-11T08:05:40.094Z,24.47
2023-05-11T08:08:06.986Z,22.17
2023-05-11T08:10:33.591Z,25.23
2023-05-11T08:13:00.257Z,25.10
2023-05-11T08:15:27.006Z,22.97
2023-05-11T08:17:53.833Z,22.93
2023-05-11T08:20:20.497Z,24.10
2023-05-11T08:22:47.118Z,22.83
2023-05-11T08:25:13.894Z,22.07
2023-05-11T08:27:40.573Z,21.07
2023-05-11T08:30:08.941Z,24.73
2023-05-11T08:32:46.695Z,22.10
2023-05-11T08:35:21.658Z,21.70
2023-05-11T08:37:48.693Z,22.27
2023-05-11T08:40:15.316Z,25.33
2023-05-11T08:42:45.662Z,20.73
2023-05-11T08:45:12.506Z,19.27
2023-05-11T08:47:39.468Z,19.93
2023-05-11T08:50:06.803Z,20.47
2023-05-11T08:52:34.495Z,20.50
2023-05-11T08:55:01.097Z,17.57
2023-05-11T08:57:30.125Z,18.23
2023-05-11T08:59:56.759Z,19.20
2023-05-11T09:02:23.986Z,19.90
2023-05-11T09:04:51.175Z,20.00
2023-05-11T09:07:18.774Z,21.33
2023-05-11T09:09:46.010Z,19.90
2023-05-11T09:12:12.839Z,20.80
2023-05-11T09:14:39.520Z,19.33
2023-05-11T09:17:06.489Z,19.63
2023-05-11T09:19:33.105Z,19.20
2023-05-11T09:22:00.286Z,20.50
2023-05-11T09:24:27.557Z,19.00
2023-05-11T09:27:09.923Z,20.87
2023-05-11T09:29:36.714Z,20.30
2023-05-11T09:32:03.369Z,19.63
2023-05-11T09:34:30.095Z,20.27
2023-05-11T09:36:57.087Z,19.10
2023-05-11T09:39:52.612Z,20.73
2023-05-11T09:42:25.454Z,19.70
2023-05-11T09:44:52.867Z,18.97
2023-05-11T09:47:20.390Z,21.83
2023-05-11T09:49:47.815Z,20.27
2023-05-11T09:52:15.740Z,19.80
2023-05-11T09:54:49.931Z,21.27
2023-05-11T09:57:24.121Z,18.70
2023-05-11T09:59:50.791Z,19.90
2023-05-11T10:02:22.785Z,19.60
2023-05-11T10:04:50.633Z,18.83
2023-05-11T10:07:24.066Z,18.90
2023-05-11T10:09:52.277Z,18.97
2023-05-11T10:12:20.034Z,19.57
2023-05-11T10:14:51.382Z,22.00
2023-05-11T10:17:18.764Z,23.30
2023-05-11T10:19:49.404Z,19.60
2023-05-11T10:22:17.993Z,22.20
2023-05-11T10:24:45.045Z,21.20
2023-05-11T10:27:24.697Z,21.57
2023-05-11T10:29:54.181Z,22.50
2023-05-11T10:32:21.315Z,22.80
2023-05-11T10:34:51.836Z,22.67
2023-05-11T10:37:18.549Z,24.00
2023-05-11T10:39:48.487Z,23.03
2023-05-11T10:42:37.415Z,22.07
2023-05-11T10:45:21.434Z,21.87
2023-05-11T10:48:02.924Z,21.03
2023-05-11T10:50:47.716Z,20.10
2023-05-11T10:53:33.337Z,22.10
2023-05-11T10:56:10.106Z,22.43
2023-05-11T10:58:58.870Z,22.40
2023-05-11T11:01:42.080Z,22.90
2023-05-11T11:04:12.420Z,21.87
2023-05-11T11:06:40.433Z,21.83
2023-05-11T11:09:08.834Z,18.97
2023-05-11T11:11:36.698Z,22.10
2023-05-11T11:14:05.861Z,21.77
2023-05-11T11:16:38.423Z,21.60
2023-05-11T11:19:24.094Z,22.77
2023-05-11T11:21:53.080Z,19.63
2023-05-11T11:24:41.296Z,21.43
2023-05-11T11:27:10.098Z,20.67
2023-05-11T11:29:37.096Z,21.97
2023-05-11T11:32:21.761Z,21.80
2023-05-11T11:34:48.793Z,18.00
2023-05-11T11:37:16.079Z,18.07
2023-05-11T11:39:42.737Z,17.10
2023-05-11T11:42:10.766Z,17.00
2023-05-11T11:44:37.967Z,20.03
2023-05-11T11:47:11.264Z,18.13
2023-05-11T11:49:39.635Z,17.17
2023-05-11T11:52:10.532Z,15.47
2023-05-11T11:54:38.229Z,16.67
2023-05-11T11:57:04.908Z,19.07
2023-05-11T11:59:45.850Z,16.00
2023-05-11T12:02:15.340Z,17.20
2023-05-11T12:04:45.552Z,15.80
2023-05-11T12:07:12.685Z,14.97
2023-05-11T12:09:40.088Z,14.40
2023-05-11T12:12:07.254Z,15.00
2023-05-11T12:14:34.633Z,15.50
2023-05-11T12:17:03.477Z,14.97
2023-05-11T12:19:31.302Z,15.53
2023-05-11T12:21:57.929Z,14.50
2023-05-11T12:24:24.582Z,13.63
2023-05-11T12:26:54.883Z,14.57
2023-05-11T12:29:21.482Z,13.77
2023-05-11T12:31:48.114Z,13.37
2023-05-11T12:34:16.174Z,13.33
2023-05-11T12:36:44.105Z,15.03
2023-05-11T12:39:17.009Z,16.93
2023-05-11T12:41:47.129Z,14.60
2023-05-11T12:44:15.107Z,15.20
2023-05-11T12:46:41.912Z,14.17
2023-05-11T12:49:09.255Z,13.33
2023-05-11T12:51:46.832Z,13.80
2023-05-11T12:54:28.820Z,15.00
2023-05-11T12:56:56.342Z,13.23
2023-05-11T12:59:24.046Z,12.97
2023-05-11T13:01:50.913Z,13.03
2023-05-11T13:04:18.734Z,12.97
2023-05-11T13:06:45.507Z,13.73
2023-05-11T13:09:12.135Z,12.17
2023-05-11T13:11:38.840Z,13.47
2023-05-11T13:14:15.517Z,13.60
2023-05-11T13:16:52.720Z,12.60
2023-05-11T13:19:28.895Z,12.83
2023-05-11T13:21:56.429Z,13.57
2023-05-11T13:24:23.615Z,12.43
2023-05-11T13:26:51.299Z,14.27
2023-05-11T13:29:18.396Z,12.00
2023-05-11T13:31:52.196Z,11.70
2023-05-11T13:34:19.810Z,13.23
2023-05-11T13:36:47.060Z,12.87
2023-05-11T13:39:13.809Z,12.20
2023-05-11T13:41:40.510Z,13.57
2023-05-11T13:44:07.185Z,12.93
2023-05-11T13:46:33.959Z,13.47
2023-05-11T13:49:01.077Z,12.43
2023-05-11T13:51:27.736Z,10.70
2023-05-11T13:53:54.401Z,11.37
2023-05-11T13:56:21.900Z,11.33
2023-05-11T13:58:48.532Z,10.73
2023-05-11T14:01:15.153Z,9.70
2023-05-11T14:03:41.800Z,12.27
2023-05-11T14:06:08.522Z,11.30
2023-05-11T14:08:35.086Z,12.07
2023-05-11T14:11:01.717Z,10.17
2023-05-11T14:13:28.308Z,11.30
2023-05-11T14:15:54.962Z,11.40
2023-05-11T14:18:21.643Z,10.60
2023-05-11T14:20:48.404Z,9.80
2023-05-11T14:23:15.058Z,11.07
2023-05-11T14:25:41.611Z,10.60
2023-05-11T14:28:08.207Z,10.33
2023-05-11T14:30:34.913Z,10.93
2023-05-11T14:33:02.560Z,10.90
2023-05-11T14:35:29.231Z,12.00
2023-05-11T14:37:56.836Z,11.33
2023-05-11T14:40:23.487Z,9.20
2023-05-11T14:42:50.047Z,9.90
2023-05-11T14:45:16.673Z,9.40
2023-05-11T14:47:43.418Z,9.60
2023-05-11T14:50:10.168Z,9.73
2023-05-11T14:52:36.860Z,9.30
2023-05-11T14:55:03.662Z,9.53
2023-05-11T14:57:30.362Z,9.00
2023-05-11T14:59:59.987Z,10.30
2023-05-11T15:02:27.660Z,11.23
2023-05-11T15:04:54.923Z,11.83
2023-05-11T15:07:21.446Z,11.90
2023-05-11T15:09:48.486Z,11.80
2023-05-11T15:12:15.211Z,11.37
2023-05-11T15:14:42.300Z,9.73
2023-05-11T15:17:08.931Z,10.07
2023-05-11T15:19:35.990Z,9.60
2023-05-11T15:22:02.692Z,11.03
2023-05-11T15:24:29.560Z,11.20
2023-05-11T15:26:57.853Z,10.87
2023-05-11T15:29:25.614Z,12.07
2023-05-11T15:31:52.447Z,10.53
2023-05-11T15:34:19.136Z,10.60
2023-05-11T15:36:48.520Z,9.93
2023-05-11T15:39:16.126Z,10.60
2023-05-11T15:41:43.322Z,10.40
2023-05-11T15:44:10.102Z,9.40
2023-05-11T15:46:36.699Z,9.73
2023-05-11T15:49:03.387Z,10.23
2023-05-11T15:51:30.096Z,10.40
2023-05-11T15:53:56.716Z,9.90
2023-05-11T15:56:23.327Z,10.80
2023-05-11T15:58:51.345Z,10.57
2023-05-11T16:01:19.315Z,11.13
2023-05-11T16:03:46.116Z,11.87
2023-05-11T16:06:12.980Z,11.80
2023-05-11T16:08:39.582Z,11.33
2023-05-11T16:11:06.214Z,11.17
2023-05-11T16:13:32.804Z,13.27
2023-05-11T16:15:59.491Z,12.50
2023-05-11T16:18:26.109Z,12.00
2023-05-11T16:20:52.762Z,11.70
2023-05-11T16:23:19.509Z,12.60
2023-05-11T16:25:47.648Z,13.43
2023-05-11T16:28:14.205Z,12.83
2023-05-11T16:30:40.868Z,12.90
2023-05-11T16:33:07.485Z,12.57
2023-05-11T16:35:34.608Z,13.63
2023-05-11T16:38:01.531Z,12.13
2023-05-11T16:40:28.238Z,12.50
2023-05-11T16:42:54.766Z,13.87
2023-05-11T16:45:21.512Z,11.80
2023-05-11T16:47:48.322Z,14.83
2023-05-11T16:50:16.107Z,15.43
2023-05-11T16:52:43.225Z,17.17
2023-05-11T16:55:10.210Z,14.00
2023-05-11T16:57:37.000Z,13.70
2023-05-11T17:00:04.448Z,17.73
2023-05-11T17:02:31.402Z,17.60
2023-05-11T17:04:58.244Z,18.00
2023-05-11T17:07:25.520Z,17.73
2023-05-11T17:09:56.378Z,19.50
2023-05-11T17:12:24.341Z,18.13
2023-05-11T17:14:51.004Z,17.47
2023-05-11T17:17:17.716Z,22.10
2023-05-11T17:19:44.462Z,21.60
2023-05-11T17:22:11.154Z,21.20
2023-05-11T17:24:38.031Z,21.17
2023-05-11T17:27:04.933Z,23.23
2023-05-11T17:29:31.680Z,26.50
2023-05-11T17:31:59.563Z,23.40
2023-05-11T17:34:28.622Z,26.10
2023-05-11T17:36:55.883Z,28.27
2023-05-11T17:39:22.599Z,27.77
2023-05-11T17:41:49.297Z,26.90
2023-05-11T17:44:15.942Z,26.83
2023-05-11T17:46:43.156Z,28.77
2023-05-11T17:49:09.995Z,29.07
2023-05-11T17:51:36.792Z,26.83
2023-05-11T17:54:03.582Z,27.00
2023-05-11T17:56:30.148Z,27.73
2023-05-11T17:58:56.681Z,24.83
2023-05-11T18:01:23.534Z,27.70
2023-05-11T18:03:50.272Z,28.93
2023-05-11T18:06:17.211Z,20.50
2023-05-11T18:08:44.132Z,20.10
2023-05-11T18:11:12.689Z,13.57
2023-05-11T18:13:39.736Z,13.57
2023-05-11T18:16:10.236Z,14.37
2023-05-11T18:18:37.083Z,14.47
2023-05-11T18:21:04.858Z,16.73
2023-05-11T18:23:32.832Z,18.60
2023-05-11T18:26:00.664Z,22.83
2023-05-11T18:28:27.396Z,26.50
2023-05-11T18:30:54.283Z,27.60
2023-05-11T18:33:21.156Z,27.67
2023-05-11T18:35:48.138Z,30.00
2023-05-11T18:38:14.793Z,30.63
2023-05-11T18:40:41.477Z,33.07
2023-05-11T18:43:08.584Z,31.17
2023-05-11T18:45:35.350Z,33.17
2023-05-11T18:50:29.860Z,34.80
2023-05-11T18:52:57.157Z,35.80
2023-05-11T18:55:24.630Z,35.53
2023-05-11T18:57:52.015Z,34.03
2023-05-11T19:00:20.417Z,31.33
2023-05-11T19:02:48.209Z,31.40
2023-05-11T19:05:16.252Z,31.90
2023-05-11T19:07:42.976Z,29.77
2023-05-11T19:10:09.917Z,26.83
2023-05-11T19:12:37.643Z,27.07
2023-05-11T19:15:04.437Z,25.70
2023-05-11T19:17:31.252Z,26.87
2023-05-11T19:19:58.042Z,25.07
2023-05-11T19:22:25.754Z,26.40
2023-05-11T19:24:52.335Z,26.27
2023-05-11T19:27:18.913Z,29.87
2023-05-11T19:29:45.803Z,26.40
2023-05-11T19:32:12.497Z,25.07
2023-05-11T19:34:39.090Z,25.13
2023-05-11T19:37:06.981Z,27.03
2023-05-11T19:39:33.792Z,25.90
2023-05-11T19:42:00.699Z,28.17
2023-05-11T19:44:28.425Z,30.03
2023-05-11T19:46:55.178Z,28.80
2023-05-11T19:49:21.776Z,30.63
2023-05-11T19:51:48.396Z,30.60
2023-05-11T19:54:15.771Z,28.93
2023-05-11T19:56:42.770Z,30.73
2023-05-11T19:59:09.379Z,32.27
2023-05-11T20:01:36.059Z,33.60
2023-05-11T20:04:02.805Z,35.47
2023-05-11T20:06:29.956Z,33.47
2023-05-11T20:08:56.876Z,36.50
2023-05-11T20:11:25.269Z,45.97
2023-05-11T20:13:53.400Z,43.27
2023-05-11T20:16:20.259Z,38.80
2023-05-11T20:18:47.370Z,39.30
2023-05-11T20:21:14.173Z,42.03
2023-05-11T20:23:40.882Z,41.40
2023-05-11T20:26:07.848Z,35.87
2023-05-11T20:28:34.469Z,39.10
2023-05-11T20:31:02.184Z,41.77
2023-05-11T20:35:58.962Z,41.87
2023-05-11T20:38:25.572Z,42.07
2023-05-11T20:40:58.281Z,42.63
2023-05-11T20:43:27.978Z,47.30
2023-05-11T20:45:54.784Z,48.93
2023-05-11T20:48:35.895Z,46.80
2023-05-11T20:51:06.023Z,43.30
2023-05-11T20:53:32.684Z,47.13
2023-05-11T20:56:01.065Z,44.40
2023-05-11T20:58:30.076Z,45.47
2023-05-11T21:00:56.707Z,45.90
2023-05-11T21:03:23.405Z,46.37
2023-05-11T21:05:50.009Z,49.67
2023-05-11T21:08:16.620Z,48.00
2023-05-11T21:10:43.152Z,47.30
2023-05-11T21:13:10.097Z,46.37
2023-05-11T21:15:36.856Z,48.30
2023-05-11T21:18:03.829Z,48.43
2023-05-11T21:20:30.506Z,46.90
2023-05-11T21:22:58.088Z,47.97
2023-05-11T21:25:24.721Z,47.70
2023-05-11T21:27:51.640Z,47.87
2023-05-11T21:30:18.872Z,53.20
2023-05-11T21:32:46.312Z,48.87
2023-05-11T21:35:14.942Z,49.77
2023-05-11T21:37:43.302Z,50.77
2023-05-11T21:40:10.186Z,50.40
2023-05-11T21:42:36.789Z,47.43
2023-05-11T21:45:03.436Z,50.40
2023-05-11T21:47:31.416Z,48.67
2023-05-11T21:49:58.145Z,46.50
2023-05-11T21:52:24.740Z,47.63
2023-05-11T21:54:51.405Z,46.23
2023-05-11T21:57:18.144Z,47.83
2023-05-11T21:59:44.748Z,47.63
2023-05-11T22:02:11.303Z,52.00
2023-05-11T22:04:37.927Z,53.67
2023-05-11T22:07:04.593Z,57.57
2023-05-11T22:09:31.611Z,59.90
2023-05-11T22:11:58.298Z,66.87
2023-05-11T22:14:24.955Z,70.10
2023-05-11T22:16:52.216Z,72.67
2023-05-11T22:19:18.908Z,77.53
2023-05-11T22:21:45.525Z,63.93
2023-05-11T22:24:13.471Z,65.23
2023-05-11T22:26:40.399Z,73.30
2023-05-11T22:29:07.016Z,59.30
2023-05-11T22:31:33.563Z,55.97
2023-05-11T22:34:00.230Z,59.50
2023-05-11T22:36:28.171Z,54.17
2023-05-11T22:38:54.756Z,54.87
2023-05-11T22:41:21.968Z,62.13
2023-05-11T22:43:48.540Z,56.13
2023-05-11T22:46:15.213Z,58.87
2023-05-11T22:48:41.848Z,57.03
2023-05-11T22:51:08.582Z,66.20
2023-05-11T22:53:35.138Z,57.43
2023-05-11T22:56:05.299Z,74.93
2023-05-11T22:58:31.968Z,60.93
2023-05-11T23:00:58.622Z,66.73
2023-05-11T23:03:26.425Z,62.80
2023-05-11T23:05:56.299Z,58.43
2023-05-11T23:08:23.016Z,57.60
2023-05-11T23:10:50.450Z,59.30
2023-05-11T23:13:17.642Z,60.00
2023-05-11T23:15:44.275Z,67.17
2023-05-11T23:18:11.026Z,55.37
2023-05-11T23:20:37.679Z,58.47
2023-05-11T23:23:04.349Z,64.90
2023-05-11T23:25:31.073Z,58.70
2023-05-11T23:27:57.790Z,60.20
2023-05-11T23:30:24.471Z,64.97
2023-05-11T23:32:51.180Z,53.90
2023-05-11T23:35:17.807Z,52.10
2023-05-11T23:37:45.214Z,50.57
2023-05-11T23:40:11.868Z,46.67
2023-05-11T23:42:39.105Z,53.27
2023-05-11T23:45:07.882Z,51.83
2023-05-11T23:47:34.827Z,55.80
2023-05-11T23:50:01.512Z,54.60
2023-05-11T23:52:28.416Z,50.87
2023-05-11T23:54:55.216Z,51.13
2023-05-11T23:57:21.906Z,54.17
2023-05-11T23:59:48.726Z,51.10
